createdAt,value
2019-03-21T00:00:50.198Z,14.53
2019-03-21T00:03:20.021Z,17.83
2019-03-21T00:05:49.839Z,15.00
2019-03-21T00:08:19.675Z,11.80
2019-03-21T00:11:16.107Z,19.50
2019-03-21T00:13:46.187Z,17.07
2019-03-21T00:16:34.795Z,7.07
2019-03-21T00:19:04.640Z,13.13
2019-03-21T00:21:34.445Z,17.73
2019-03-21T00:24:04.360Z,11.93
2019-03-21T00:26:34.184Z,18.40
2019-03-21T00:29:04.027Z,12.10
2019-03-21T00:31:33.859Z,20.40
2019-03-21T00:34:03.675Z,10.87
2019-03-21T00:36:33.490Z,17.30
2019-03-21T00:41:40.218Z,14.13
2019-03-21T00:44:17.773Z,19.30
2019-03-21T00:46:41.581Z,19.13
2019-03-21T00:49:11.394Z,17.50
2019-03-21T00:51:41.224Z,12.27
2019-03-21T00:54:11.038Z,16.60
2019-03-21T00:56:40.860Z,16.37
2019-03-21T00:59:10.705Z,10.53
2019-03-21T01:01:40.552Z,23.40
2019-03-21T01:04:10.367Z,19.93
2019-03-21T01:06:40.186Z,18.40
2019-03-21T01:09:29.488Z,11.27
2019-03-21T01:14:53.938Z,11.33
2019-03-21T01:17:23.766Z,21.30
2019-03-21T01:19:53.572Z,19.53
2019-03-21T01:22:23.503Z,12.80
2019-03-21T01:24:53.323Z,8.60
2019-03-21T01:27:23.146Z,15.50
2019-03-21T01:29:52.972Z,23.67
2019-03-21T01:32:22.796Z,16.07
2019-03-21T01:34:52.643Z,14.98
2019-03-21T01:37:22.460Z,12.73
2019-03-21T01:39:52.276Z,19.30
2019-03-21T01:42:22.104Z,18.40
2019-03-21T01:44:51.927Z,11.07
2019-03-21T01:47:21.762Z,10.53
2019-03-21T01:49:51.625Z,11.07
2019-03-21T01:52:21.438Z,14.93
2019-03-21T01:54:51.243Z,13.03
2019-03-21T01:57:21.155Z,15.33
2019-03-21T01:59:50.979Z,7.67
2019-03-21T02:02:20.804Z,21.57
2019-03-21T02:04:50.633Z,18.93
2019-03-21T02:07:20.457Z,13.10
2019-03-21T02:09:50.280Z,19.67
2019-03-21T02:12:20.116Z,21.67
2019-03-21T02:14:52.455Z,14.53
2019-03-21T02:18:00.547Z,17.33
2019-03-21T02:23:19.171Z,12.03
2019-03-21T02:25:48.994Z,14.20
2019-03-21T02:28:18.833Z,15.83
2019-03-21T02:30:48.779Z,10.23
2019-03-21T02:33:37.374Z,18.90
2019-03-21T02:36:07.223Z,15.03
2019-03-21T02:38:37.039Z,19.00
2019-03-21T02:41:08.020Z,16.57
2019-03-21T02:43:38.154Z,19.27
2019-03-21T02:46:07.990Z,16.63
2019-03-21T02:48:37.823Z,16.47
2019-03-21T02:51:26.494Z,20.30
2019-03-21T02:53:56.329Z,17.33
2019-03-21T02:56:26.398Z,18.47
2019-03-21T02:58:56.588Z,16.07
2019-03-21T03:01:26.425Z,20.33
2019-03-21T03:03:56.258Z,9.87
2019-03-21T03:06:26.158Z,17.17
2019-03-21T03:08:55.971Z,15.33
2019-03-21T03:12:04.872Z,14.37
2019-03-21T03:14:34.705Z,9.07
2019-03-21T03:17:04.529Z,22.37
2019-03-21T03:19:34.369Z,18.27
2019-03-21T03:22:04.188Z,19.93
2019-03-21T03:24:35.392Z,23.60
2019-03-21T03:27:05.208Z,14.07
2019-03-21T03:29:35.020Z,18.23
2019-03-21T03:32:04.846Z,17.87
2019-03-21T03:34:34.676Z,21.43
2019-03-21T03:37:04.537Z,11.97
2019-03-21T03:39:36.928Z,16.43
2019-03-21T03:42:05.948Z,12.30
2019-03-21T03:44:35.801Z,12.10
2019-03-21T03:47:05.623Z,17.20
2019-03-21T03:49:35.454Z,18.63
2019-03-21T03:52:05.279Z,15.67
2019-03-21T03:54:35.243Z,11.63
2019-03-21T03:57:05.069Z,12.90
2019-03-21T03:59:34.913Z,19.60
2019-03-21T04:02:04.739Z,16.30
2019-03-21T04:04:34.627Z,19.62
2019-03-21T04:07:04.446Z,20.20
2019-03-21T04:09:34.265Z,18.00
2019-03-21T04:12:04.104Z,10.67
2019-03-21T04:14:33.923Z,17.57
2019-03-21T04:17:03.747Z,14.97
2019-03-21T04:19:33.623Z,15.93
2019-03-21T04:22:03.501Z,18.10
2019-03-21T04:24:33.377Z,16.70
2019-03-21T04:27:03.194Z,20.10
2019-03-21T04:29:33.068Z,17.17
2019-03-21T04:32:02.892Z,23.43
2019-03-21T04:34:32.712Z,16.37
2019-03-21T04:37:02.549Z,19.80
2019-03-21T04:39:34.313Z,14.80
2019-03-21T04:42:04.155Z,19.57
2019-03-21T04:44:34.011Z,19.37
2019-03-21T04:47:03.822Z,20.73
2019-03-21T04:49:33.658Z,14.93
2019-03-21T04:52:03.481Z,19.77
2019-03-21T04:54:33.310Z,20.93
2019-03-21T04:57:03.261Z,14.57
2019-03-21T04:59:33.148Z,11.57
2019-03-21T05:02:02.979Z,15.73
2019-03-21T05:04:32.892Z,14.90
2019-03-21T05:07:02.720Z,19.67
2019-03-21T05:09:32.557Z,17.70
2019-03-21T05:12:02.422Z,19.33
2019-03-21T05:14:32.252Z,15.80
2019-03-21T05:17:20.846Z,21.03
2019-03-21T05:19:50.667Z,17.07
2019-03-21T05:22:20.490Z,15.77
2019-03-21T05:24:50.321Z,18.77
2019-03-21T05:27:20.155Z,15.70
2019-03-21T05:29:49.980Z,18.43
2019-03-21T05:32:19.816Z,18.97
2019-03-21T05:35:08.515Z,19.73
2019-03-21T05:37:38.408Z,14.70
2019-03-21T05:40:10.232Z,12.00
2019-03-21T05:42:40.106Z,11.67
2019-03-21T05:45:10.862Z,18.77
2019-03-21T05:47:40.682Z,16.13
2019-03-21T05:50:11.726Z,13.43
2019-03-21T05:53:00.439Z,15.57
2019-03-21T05:55:30.276Z,14.60
2019-03-21T05:58:00.101Z,17.53
2019-03-21T06:03:15.934Z,13.93
2019-03-21T06:05:48.740Z,13.93
2019-03-21T06:08:21.886Z,23.83
2019-03-21T06:10:51.870Z,18.73
2019-03-21T06:13:21.690Z,19.47
2019-03-21T06:15:51.561Z,15.83
2019-03-21T06:18:58.913Z,30.30
2019-03-21T06:21:50.333Z,19.77
2019-03-21T06:24:45.187Z,21.00
2019-03-21T06:27:34.040Z,16.97
2019-03-21T06:32:59.793Z,15.30
2019-03-21T06:35:29.652Z,18.83
2019-03-21T06:37:59.501Z,19.50
2019-03-21T06:40:29.345Z,27.30
2019-03-21T06:42:59.183Z,20.23
2019-03-21T06:45:29.051Z,19.87
2019-03-21T06:47:58.913Z,23.27
2019-03-21T06:50:28.764Z,22.70
2019-03-21T06:52:58.603Z,18.80
2019-03-21T06:55:28.467Z,23.33
2019-03-21T06:57:58.405Z,21.03
2019-03-21T07:00:28.234Z,25.10
2019-03-21T07:02:58.088Z,22.63
2019-03-21T07:05:27.920Z,24.93
2019-03-21T07:07:57.745Z,29.17
2019-03-21T07:10:27.596Z,26.33
2019-03-21T07:12:57.492Z,29.70
2019-03-21T07:15:27.347Z,28.93
2019-03-21T07:17:57.229Z,25.90
2019-03-21T07:20:45.961Z,27.90
2019-03-21T07:23:15.790Z,30.07
2019-03-21T07:25:45.615Z,28.90
2019-03-21T07:28:15.454Z,25.97
2019-03-21T07:30:45.263Z,28.97
2019-03-21T07:33:15.104Z,31.53
2019-03-21T07:35:44.932Z,34.17
2019-03-21T07:38:14.805Z,32.13
2019-03-21T07:40:44.614Z,35.73
2019-03-21T07:43:14.445Z,33.67
2019-03-21T07:45:44.275Z,41.30
2019-03-21T07:48:14.114Z,41.03
2019-03-21T07:50:43.929Z,33.27
2019-03-21T07:53:13.780Z,38.47
2019-03-21T07:55:43.609Z,40.27
2019-03-21T07:58:13.440Z,39.33
2019-03-21T08:00:43.289Z,42.50
2019-03-21T08:03:13.116Z,39.30
2019-03-21T08:05:42.946Z,38.70
2019-03-21T08:08:31.540Z,36.60
2019-03-21T08:11:01.383Z,37.97
2019-03-21T08:13:31.209Z,39.67
2019-03-21T08:16:19.781Z,52.10
2019-03-21T08:18:49.615Z,40.47
2019-03-21T08:21:19.478Z,41.13
2019-03-21T08:23:49.319Z,43.53
2019-03-21T08:26:19.576Z,39.97
2019-03-21T08:28:49.396Z,42.63
2019-03-21T08:31:20.578Z,29.80
2019-03-21T08:33:50.425Z,34.00
2019-03-21T08:36:20.229Z,42.97
2019-03-21T08:38:50.077Z,41.23
2019-03-21T08:41:19.896Z,37.00
2019-03-21T08:43:49.730Z,35.73
2019-03-21T08:46:38.375Z,35.50
2019-03-21T08:49:08.213Z,35.77
2019-03-21T08:51:38.030Z,41.37
2019-03-21T08:54:07.863Z,39.43
2019-03-21T08:56:37.684Z,37.83
2019-03-21T08:59:07.509Z,42.40
2019-03-21T09:01:37.529Z,34.70
2019-03-21T09:04:07.412Z,37.93
2019-03-21T09:06:37.241Z,43.60
2019-03-21T09:09:09.950Z,38.10
2019-03-21T09:11:40.044Z,40.30
2019-03-21T09:14:10.019Z,41.43
2019-03-21T09:16:39.908Z,39.70
2019-03-21T09:19:09.766Z,32.03
2019-03-21T09:21:58.473Z,35.23
2019-03-21T09:27:17.597Z,33.93
2019-03-21T09:29:53.829Z,37.80
2019-03-21T09:32:21.356Z,34.47
2019-03-21T09:34:51.151Z,43.50
2019-03-21T09:37:31.530Z,36.13
2019-03-21T09:40:01.444Z,28.87
2019-03-21T09:42:31.449Z,30.87
2019-03-21T09:45:01.584Z,37.10
2019-03-21T09:47:31.642Z,43.70
2019-03-21T09:50:01.477Z,29.23
2019-03-21T09:52:31.315Z,33.87
2019-03-21T09:55:01.143Z,33.37
2019-03-21T09:58:08.656Z,31.03
2019-03-21T10:03:29.168Z,33.27
2019-03-21T10:05:59.012Z,27.80
2019-03-21T10:08:28.840Z,34.07
2019-03-21T10:11:17.447Z,34.67
2019-03-21T10:13:47.262Z,32.70
2019-03-21T10:16:35.884Z,32.43
2019-03-21T10:19:05.738Z,31.63
2019-03-21T10:21:43.193Z,35.47
2019-03-21T10:24:26.000Z,22.80
2019-03-21T10:26:55.929Z,36.40
2019-03-21T10:29:25.766Z,28.87
2019-03-21T10:31:55.662Z,32.23
2019-03-21T10:34:25.501Z,24.20
2019-03-21T10:37:14.173Z,27.70
2019-03-21T10:39:44.019Z,25.83
2019-03-21T10:42:21.101Z,26.87
2019-03-21T10:45:09.700Z,25.07
2019-03-21T10:47:39.546Z,28.70
2019-03-21T10:50:09.372Z,25.47
2019-03-21T10:52:39.186Z,25.30
2019-03-21T10:55:27.788Z,27.93
2019-03-21T11:00:59.730Z,21.97
2019-03-21T11:03:29.552Z,28.60
2019-03-21T11:05:59.369Z,24.97
2019-03-21T11:08:29.223Z,24.43
2019-03-21T11:10:59.085Z,17.93
2019-03-21T11:13:29.079Z,19.03
2019-03-21T11:15:58.924Z,21.73
2019-03-21T11:18:36.109Z,22.93
2019-03-21T11:21:00.340Z,20.57
2019-03-21T11:23:48.933Z,22.73
2019-03-21T11:26:19.296Z,17.40
2019-03-21T11:28:49.120Z,19.63
2019-03-21T11:31:37.901Z,17.10
2019-03-21T11:34:07.710Z,13.90
2019-03-21T11:36:56.473Z,17.57
2019-03-21T11:39:37.179Z,16.57
2019-03-21T11:42:07.027Z,13.63
2019-03-21T11:44:36.834Z,16.67
2019-03-21T11:47:06.671Z,14.10
2019-03-21T11:49:36.502Z,12.13
2019-03-21T11:52:17.527Z,21.43
2019-03-21T11:54:37.863Z,17.63
2019-03-21T11:57:07.685Z,14.47
2019-03-21T11:59:50.718Z,17.90
2019-03-21T12:02:09.040Z,14.80
2019-03-21T12:04:38.879Z,15.33
2019-03-21T12:07:08.720Z,15.03
2019-03-21T12:09:38.568Z,17.60
2019-03-21T12:12:08.383Z,17.00
2019-03-21T12:14:38.366Z,9.47
2019-03-21T12:17:08.187Z,14.97
2019-03-21T12:19:37.989Z,22.87
2019-03-21T12:22:30.251Z,14.53
2019-03-21T12:24:58.248Z,14.90
2019-03-21T12:27:28.055Z,11.97
2019-03-21T12:29:58.093Z,15.60
2019-03-21T12:32:27.923Z,12.07
2019-03-21T12:34:57.892Z,13.60
2019-03-21T12:37:27.744Z,15.03
2019-03-21T12:39:57.630Z,13.13
2019-03-21T12:42:27.520Z,20.37
2019-03-21T12:44:57.338Z,17.70
2019-03-21T12:47:31.508Z,16.47
2019-03-21T12:50:00.774Z,18.27
2019-03-21T12:52:41.013Z,20.77
2019-03-21T12:55:02.133Z,23.60
2019-03-21T12:57:31.931Z,10.47
2019-03-21T13:00:20.664Z,16.37
2019-03-21T13:02:50.474Z,17.03
2019-03-21T13:06:04.845Z,15.43
2019-03-21T13:08:34.659Z,15.47
2019-03-21T13:11:04.468Z,19.03
2019-03-21T13:13:34.309Z,13.87
2019-03-21T13:16:04.127Z,18.00
2019-03-21T13:18:33.973Z,13.70
2019-03-21T13:21:03.797Z,18.73
2019-03-21T13:23:33.607Z,15.63
2019-03-21T13:26:03.462Z,16.00
2019-03-21T13:28:33.287Z,16.03
2019-03-21T13:31:03.104Z,16.70
2019-03-21T13:33:32.923Z,13.67
2019-03-21T13:36:02.739Z,17.67
2019-03-21T13:38:32.565Z,21.17
2019-03-21T13:41:02.412Z,15.70
2019-03-21T13:43:32.234Z,13.53
2019-03-21T13:46:02.053Z,16.67
2019-03-21T13:48:31.886Z,14.10
2019-03-21T13:51:01.730Z,16.33
2019-03-21T13:53:50.448Z,12.57
2019-03-21T13:56:20.317Z,20.50
2019-03-21T13:58:50.141Z,18.93
2019-03-21T14:01:19.970Z,17.23
2019-03-21T14:03:49.803Z,14.90
2019-03-21T14:06:19.644Z,13.17
2019-03-21T14:08:49.477Z,18.30
2019-03-21T14:11:19.487Z,19.20
2019-03-21T14:13:49.350Z,17.60
2019-03-21T14:16:19.235Z,20.17
2019-03-21T14:18:49.059Z,13.53
2019-03-21T14:21:18.883Z,18.13
2019-03-21T14:23:48.687Z,16.30
2019-03-21T14:26:18.509Z,22.33
2019-03-21T14:28:48.325Z,17.90
2019-03-21T14:31:18.246Z,10.93
2019-03-21T14:33:48.093Z,20.73
2019-03-21T14:36:17.990Z,16.77
2019-03-21T14:38:47.816Z,12.90
2019-03-21T14:41:17.696Z,13.90
2019-03-21T14:43:47.525Z,17.93
2019-03-21T14:46:17.338Z,15.40
2019-03-21T14:48:47.146Z,21.77
2019-03-21T14:51:17.165Z,17.83
2019-03-21T14:53:47.052Z,19.60
2019-03-21T14:56:17.032Z,16.03
2019-03-21T14:58:46.886Z,16.00
2019-03-21T15:01:16.736Z,18.43
2019-03-21T15:03:46.580Z,18.70
2019-03-21T15:06:16.486Z,16.57
2019-03-21T15:08:46.468Z,18.90
2019-03-21T15:11:17.530Z,16.33
2019-03-21T15:13:47.854Z,18.70
2019-03-21T15:16:17.694Z,21.90
2019-03-21T15:18:47.505Z,19.67
2019-03-21T15:21:17.357Z,21.77
2019-03-21T15:24:05.878Z,23.40
2019-03-21T15:26:35.725Z,18.20
2019-03-21T15:29:24.327Z,14.40
2019-03-21T15:31:54.206Z,24.40
2019-03-21T15:34:24.036Z,16.10
2019-03-21T15:36:53.891Z,21.13
2019-03-21T15:39:23.730Z,20.60
2019-03-21T15:41:53.572Z,16.13
2019-03-21T15:44:23.417Z,29.40
2019-03-21T15:46:53.248Z,14.67
2019-03-21T15:49:23.113Z,20.57
2019-03-21T15:51:52.953Z,20.97
2019-03-21T15:54:22.796Z,22.03
2019-03-21T15:56:52.637Z,19.87
2019-03-21T15:59:22.499Z,15.13
2019-03-21T16:01:52.336Z,20.17
2019-03-21T16:04:22.212Z,25.27
2019-03-21T16:06:52.067Z,23.63
2019-03-21T16:09:21.910Z,11.83
2019-03-21T16:11:51.756Z,18.60
2019-03-21T16:14:21.619Z,17.13
2019-03-21T16:16:51.461Z,26.63
2019-03-21T16:19:21.326Z,24.30
2019-03-21T16:21:51.191Z,20.00
2019-03-21T16:24:39.818Z,15.93
2019-03-21T16:27:09.672Z,19.83
2019-03-21T16:29:39.533Z,15.37
2019-03-21T16:32:09.380Z,19.10
2019-03-21T16:34:57.908Z,18.07
2019-03-21T16:37:27.785Z,16.53
2019-03-21T16:39:57.655Z,16.33
2019-03-21T16:42:27.506Z,17.20
2019-03-21T16:45:16.144Z,21.60
2019-03-21T16:47:45.990Z,14.47
2019-03-21T16:50:15.836Z,14.13
2019-03-21T16:52:45.746Z,16.73
2019-03-21T16:55:54.746Z,13.87
2019-03-21T16:58:35.172Z,17.27
2019-03-21T17:01:16.095Z,21.87
2019-03-21T17:03:45.972Z,15.63
2019-03-21T17:06:16.559Z,16.53
2019-03-21T17:09:07.453Z,17.13
2019-03-21T17:11:37.282Z,16.63
2019-03-21T17:14:07.257Z,15.90
2019-03-21T17:16:37.175Z,11.20
2019-03-21T17:19:25.774Z,12.83
2019-03-21T17:21:55.650Z,20.57
2019-03-21T17:24:29.484Z,13.40
2019-03-21T17:27:08.005Z,14.77
2019-03-21T17:29:37.859Z,14.10
2019-03-21T17:32:07.696Z,15.00
2019-03-21T17:34:37.540Z,14.23
2019-03-21T17:37:07.388Z,18.70
2019-03-21T17:39:37.225Z,15.77
2019-03-21T17:42:07.064Z,17.10
2019-03-21T17:44:36.985Z,9.33
2019-03-21T17:47:06.836Z,15.93
2019-03-21T17:49:36.732Z,13.00
2019-03-21T17:52:06.634Z,18.33
2019-03-21T17:54:41.584Z,16.23
2019-03-21T17:57:08.099Z,23.83
2019-03-21T17:59:37.964Z,20.60
2019-03-21T18:02:07.827Z,22.50
2019-03-21T18:04:37.835Z,16.57
2019-03-21T18:07:26.488Z,15.17
2019-03-21T18:09:56.340Z,14.07
2019-03-21T18:12:26.224Z,16.37
2019-03-21T18:14:56.064Z,10.07
2019-03-21T18:17:44.794Z,15.77
2019-03-21T18:20:14.653Z,14.03
2019-03-21T18:22:45.718Z,13.13
2019-03-21T18:25:16.069Z,16.10
2019-03-21T18:27:45.945Z,9.30
2019-03-21T18:30:15.811Z,9.83
2019-03-21T18:32:45.661Z,15.57
2019-03-21T18:35:15.511Z,11.80
2019-03-21T18:37:45.424Z,20.03
2019-03-21T18:40:34.044Z,10.80
2019-03-21T18:43:03.911Z,16.23
2019-03-21T18:45:33.762Z,18.83
2019-03-21T18:48:03.607Z,13.10
2019-03-21T18:50:33.460Z,14.67
2019-03-21T18:53:03.333Z,15.40
2019-03-21T18:55:33.198Z,15.23
2019-03-21T18:58:03.073Z,12.63
2019-03-21T19:00:32.920Z,16.47
2019-03-21T19:03:02.806Z,13.47
2019-03-21T19:05:32.765Z,12.20
2019-03-21T19:08:02.683Z,8.80
2019-03-21T19:10:32.511Z,7.80
2019-03-21T19:13:02.381Z,27.17
2019-03-21T19:15:51.048Z,17.33
2019-03-21T19:18:20.916Z,10.13
2019-03-21T19:23:39.672Z,15.97
2019-03-21T19:26:09.591Z,16.97
2019-03-21T19:28:39.483Z,29.20
2019-03-21T19:31:09.495Z,2.50
2019-03-21T19:33:39.563Z,20.37
2019-03-21T19:36:09.452Z,27.00
2019-03-21T19:38:39.316Z,24.47
2019-03-21T19:41:09.178Z,15.07
2019-03-21T19:43:39.092Z,34.43
2019-03-21T19:46:08.971Z,24.30
2019-03-21T19:48:49.834Z,22.00
2019-03-21T19:51:10.391Z,15.83
2019-03-21T19:53:40.239Z,26.13
2019-03-21T19:56:10.106Z,31.10
2019-03-21T19:58:39.977Z,5.13
2019-03-21T20:01:09.850Z,18.40
2019-03-21T20:03:39.779Z,10.17
2019-03-21T20:06:09.644Z,6.20
2019-03-21T20:08:39.503Z,12.73
2019-03-21T20:11:09.416Z,4.30
2019-03-21T20:13:39.254Z,5.27
2019-03-21T20:16:09.086Z,4.67
2019-03-21T20:18:38.910Z,1.80
2019-03-21T20:21:08.816Z,5.63
2019-03-21T20:23:38.677Z,4.33
2019-03-21T20:26:08.514Z,4.17
2019-03-21T20:28:38.405Z,4.47
2019-03-21T20:31:08.285Z,9.50
2019-03-21T20:33:38.121Z,9.00
2019-03-21T20:36:07.982Z,5.67
2019-03-21T20:38:37.839Z,2.40
2019-03-21T20:41:07.681Z,2.10
2019-03-21T20:43:37.562Z,3.50
2019-03-21T20:46:07.435Z,1.43
2019-03-21T20:48:35.002Z,3.53
2019-03-21T20:51:04.842Z,2.03
2019-03-21T20:53:34.698Z,2.87
2019-03-21T20:56:04.569Z,1.97
2019-03-21T20:58:34.422Z,3.97
2019-03-21T21:01:24.633Z,4.77
2019-03-21T21:03:54.464Z,1.17
2019-03-21T21:06:24.320Z,3.97
2019-03-21T21:08:54.179Z,4.57
2019-03-21T21:11:24.051Z,3.63
2019-03-21T21:13:53.905Z,6.27
2019-03-21T21:16:23.784Z,3.30
2019-03-21T21:18:53.607Z,2.73
2019-03-21T21:21:23.442Z,3.73
2019-03-21T21:23:53.301Z,3.63
2019-03-21T21:26:23.140Z,1.63
2019-03-21T21:28:53.018Z,2.33
2019-03-21T21:31:22.899Z,2.40
2019-03-21T21:33:52.738Z,1.77
2019-03-21T21:36:22.575Z,2.27
2019-03-21T21:38:52.414Z,3.23
2019-03-21T21:41:22.264Z,3.03
2019-03-21T21:43:52.114Z,2.30
2019-03-21T21:46:21.960Z,5.20
2019-03-21T21:48:51.892Z,6.97
2019-03-21T21:51:21.752Z,5.10
2019-03-21T21:53:51.570Z,3.93
2019-03-21T21:56:21.402Z,5.57
2019-03-21T21:58:51.260Z,5.20
2019-03-21T22:01:21.131Z,8.20
2019-03-21T22:03:50.972Z,6.33
2019-03-21T22:09:10.298Z,4.70
2019-03-21T22:11:40.143Z,8.60
2019-03-21T22:14:09.987Z,2.47
2019-03-21T22:16:39.813Z,4.20
2019-03-21T22:19:09.651Z,1.87
2019-03-21T22:21:39.499Z,2.17
2019-03-21T22:24:09.351Z,4.30
2019-03-21T22:26:39.177Z,5.17
2019-03-21T22:29:08.998Z,5.43
2019-03-21T22:31:38.845Z,3.70
2019-03-21T22:34:08.693Z,4.73
2019-03-21T22:36:48.944Z,2.23
2019-03-21T22:39:10.088Z,2.63
2019-03-21T22:41:39.931Z,6.90
2019-03-21T22:44:09.762Z,3.43
2019-03-21T22:46:39.602Z,8.47
2019-03-21T22:49:09.436Z,12.60
2019-03-21T22:51:39.263Z,6.20
2019-03-21T22:54:09.073Z,7.87
2019-03-21T22:56:41.511Z,5.53
2019-03-21T22:59:10.456Z,4.77
2019-03-21T23:01:40.290Z,6.20
2019-03-21T23:04:10.125Z,5.17
2019-03-21T23:06:39.948Z,2.67
2019-03-21T23:09:09.782Z,6.00
2019-03-21T23:11:39.609Z,7.57
2019-03-21T23:14:09.439Z,4.27
2019-03-21T23:16:39.256Z,2.43
2019-03-21T23:19:09.091Z,4.43
2019-03-21T23:21:38.942Z,7.37
2019-03-21T23:24:08.779Z,7.67
2019-03-21T23:26:38.622Z,4.67
2019-03-21T23:29:08.445Z,4.13
2019-03-21T23:31:38.261Z,5.83
2019-03-21T23:34:08.098Z,3.30
2019-03-21T23:36:37.911Z,5.63
2019-03-21T23:39:08.129Z,7.60
2019-03-21T23:41:37.960Z,5.77
2019-03-21T23:44:07.781Z,4.53
2019-03-21T23:46:37.619Z,2.00
2019-03-21T23:49:07.442Z,5.17
2019-03-21T23:51:37.318Z,1.70
2019-03-21T23:54:07.142Z,8.23
2019-03-21T23:56:36.954Z,2.73
2019-03-21T23:59:06.776Z,1.87
